sensor_id;sensor_type;location;lat;lon;timestamp;pressure;altitude;pressure_sealevel;temperature;humidity
8298;BME280;4187;42.778;23.242;2022-12-13T00:01:49;94776.69;;;0.38;100.00
8298;BME280;4187;42.778;23.242;2022-12-13T00:04:17;94778.47;;;0.38;100.00
8298;BME280;4187;42.778;23.242;2022-12-13T00:06:44;94775.78;;;0.39;100.00
8298;BME280;4187;42.778;23.242;2022-12-13T00:09:12;94780.03;;;0.40;100.00
8298;BME280;4187;42.778;23.242;2022-12-13T00:11:39;94771.59;;;0.37;100.00
8298;BME280;4187;42.778;23.242;2022-12-13T00:14:06;94734.78;;;0.04;100.00
8298;BME280;4187;42.778;23.242;2022-12-13T00:16:33;94770.88;;;0.35;100.00
8298;BME280;4187;42.778;23.242;2022-12-13T00:19:01;94783.44;;;0.41;100.00
8298;BME280;4187;42.778;23.242;2022-12-13T00:21:30;94776.22;;;0.46;100.00
8298;BME280;4187;42.778;23.242;2022-12-13T00:23:57;94767.44;;;0.34;100.00
8298;BME280;4187;42.778;23.242;2022-12-13T00:26:27;94779.38;;;0.51;100.00
8298;BME280;4187;42.778;23.242;2022-12-13T00:28:57;94787.88;;;0.53;100.00
8298;BME280;4187;42.778;23.242;2022-12-13T00:31:25;94785.38;;;0.51;100.00
8298;BME280;4187;42.778;23.242;2022-12-13T00:33:52;94776.50;;;0.41;100.00
8298;BME280;4187;42.778;23.242;2022-12-13T00:36:20;94791.81;;;0.46;100.00
8298;BME280;4187;42.778;23.242;2022-12-13T00:38:47;94798.34;;;0.51;100.00
8298;BME280;4187;42.778;23.242;2022-12-13T00:41:26;94787.97;;;0.51;100.00
8298;BME280;4187;42.778;23.242;2022-12-13T00:43:53;94796.59;;;0.52;100.00
8298;BME280;4187;42.778;23.242;2022-12-13T00:46:20;94778.38;;;0.39;100.00
8298;BME280;4187;42.778;23.242;2022-12-13T00:48:48;94801.69;;;0.53;100.00
8298;BME280;4187;42.778;23.242;2022-12-13T00:51:15;94807.13;;;0.63;100.00
8298;BME280;4187;42.778;23.242;2022-12-13T00:53:44;94799.06;;;0.68;100.00
8298;BME280;4187;42.778;23.242;2022-12-13T00:56:12;94807.13;;;0.63;100.00
8298;BME280;4187;42.778;23.242;2022-12-13T00:58:39;94797.94;;;0.72;100.00
8298;BME280;4187;42.778;23.242;2022-12-13T01:01:07;94807.59;;;0.70;100.00
8298;BME280;4187;42.778;23.242;2022-12-13T01:03:35;94809.72;;;0.63;100.00
8298;BME280;4187;42.778;23.242;2022-12-13T01:06:07;94813.28;;;0.62;100.00
8298;BME280;4187;42.778;23.242;2022-12-13T01:08:34;94807.13;;;0.63;100.00
8298;BME280;4187;42.778;23.242;2022-12-13T01:11:05;94808.16;;;0.60;100.00
8298;BME280;4187;42.778;23.242;2022-12-13T01:13:33;94811.97;;;0.55;100.00
8298;BME280;4187;42.778;23.242;2022-12-13T01:16:01;94787.66;;;0.29;100.00
8298;BME280;4187;42.778;23.242;2022-12-13T01:18:28;94811.31;;;0.51;100.00
8298;BME280;4187;42.778;23.242;2022-12-13T01:20:57;94801.88;;;0.50;100.00
8298;BME280;4187;42.778;23.242;2022-12-13T01:23:24;94808.72;;;0.51;100.00
8298;BME280;4187;42.778;23.242;2022-12-13T01:25:51;94792.44;;;0.35;100.00
8298;BME280;4187;42.778;23.242;2022-12-13T01:28:20;94774.75;;;0.42;100.00
8298;BME280;4187;42.778;23.242;2022-12-13T01:30:54;94821.25;;;0.59;100.00
8298;BME280;4187;42.778;23.242;2022-12-13T01:33:22;94775.97;;;0.36;100.00
8298;BME280;4187;42.778;23.242;2022-12-13T01:35:49;94815.28;;;0.57;100.00
8298;BME280;4187;42.778;23.242;2022-12-13T01:38:16;94816.59;;;0.64;100.00
8298;BME280;4187;42.778;23.242;2022-12-13T01:40:44;94820.03;;;0.65;100.00
8298;BME280;4187;42.778;23.242;2022-12-13T01:43:12;94830.00;;;0.71;100.00
8298;BME280;4187;42.778;23.242;2022-12-13T01:45:41;94829.47;;;0.66;100.00
8298;BME280;4187;42.778;23.242;2022-12-13T01:48:10;94831.72;;;0.57;100.00
8298;BME280;4187;42.778;23.242;2022-12-13T01:50:42;94829.03;;;0.59;100.00
8298;BME280;4187;42.778;23.242;2022-12-13T01:53:16;94828.38;;;0.55;100.00
8298;BME280;4187;42.778;23.242;2022-12-13T01:55:45;94824.53;;;0.48;100.00
8298;BME280;4187;42.778;23.242;2022-12-13T01:58:13;94820.06;;;0.50;100.00
8298;BME280;4187;42.778;23.242;2022-12-13T02:00:47;94820.72;;;0.54;100.00
8298;BME280;4187;42.778;23.242;2022-12-13T02:03:15;94790.69;;;0.36;100.00
8298;BME280;4187;42.778;23.242;2022-12-13T02:05:45;94810.25;;;0.41;100.00
8298;BME280;4187;42.778;23.242;2022-12-13T02:08:16;94819.22;;;0.50;100.00
8298;BME280;4187;42.778;23.242;2022-12-13T02:10:44;94823.94;;;0.57;100.00
8298;BME280;4187;42.778;23.242;2022-12-13T02:13:12;94824.66;;;0.59;100.00
8298;BME280;4187;42.778;23.242;2022-12-13T02:15:46;94831.63;;;0.59;100.00
8298;BME280;4187;42.778;23.242;2022-12-13T02:18:39;94825.78;;;0.55;100.00
8298;BME280;4187;42.778;23.242;2022-12-13T02:21:18;94840.03;;;0.63;100.00
8298;BME280;4187;42.778;23.242;2022-12-13T02:26:51;94843.03;;;0.56;100.00
8298;BME280;4187;42.778;23.242;2022-12-13T02:32:45;94844.06;;;0.54;100.00
8298;BME280;4187;42.778;23.242;2022-12-13T02:35:21;94828.88;;;0.48;100.00
8298;BME280;4187;42.778;23.242;2022-12-13T02:37:57;94804.88;;;0.30;100.00
8298;BME280;4187;42.778;23.242;2022-12-13T02:40:26;94844.28;;;0.37;100.00
8298;BME280;4187;42.778;23.242;2022-12-13T02:43:03;94833.72;;;0.26;100.00
8298;BME280;4187;42.778;23.242;2022-12-13T02:45:36;94847.44;;;0.28;100.00
8298;BME280;4187;42.778;23.242;2022-12-13T02:48:08;94845.84;;;0.11;100.00
8298;BME280;4187;42.778;23.242;2022-12-13T02:50:36;94840.50;;;0.00;100.00
8298;BME280;4187;42.778;23.242;2022-12-13T02:53:05;94842.06;;;-0.12;100.00
8298;BME280;4187;42.778;23.242;2022-12-13T02:55:32;94832.91;;;-0.17;100.00
8298;BME280;4187;42.778;23.242;2022-12-13T02:58:01;94833.53;;;-0.28;100.00
8298;BME280;4187;42.778;23.242;2022-12-13T03:00:36;94844.81;;;-0.43;100.00
8298;BME280;4187;42.778;23.242;2022-12-13T03:03:17;94830.53;;;-0.50;100.00
8298;BME280;4187;42.778;23.242;2022-12-13T03:05:54;94827.97;;;-0.50;100.00
8298;BME280;4187;42.778;23.242;2022-12-13T03:08:50;94827.97;;;-0.50;100.00
8298;BME280;4187;42.778;23.242;2022-12-13T03:11:23;94815.34;;;-0.56;100.00
8298;BME280;4187;42.778;23.242;2022-12-13T03:13:53;94824.31;;;-0.62;100.00
8298;BME280;4187;42.778;23.242;2022-12-13T03:16:28;94821.44;;;-0.71;100.00
8298;BME280;4187;42.778;23.242;2022-12-13T03:19:02;94823.63;;;-0.79;100.00
8298;BME280;4187;42.778;23.242;2022-12-13T03:21:37;94833.78;;;-0.90;100.00
8298;BME280;4187;42.778;23.242;2022-12-13T03:24:05;94830.97;;;-1.01;100.00
8298;BME280;4187;42.778;23.242;2022-12-13T03:26:32;94835.41;;;-1.03;100.00
8298;BME280;4187;42.778;23.242;2022-12-13T03:28:59;94826.72;;;-1.18;100.00
8298;BME280;4187;42.778;23.242;2022-12-13T03:31:26;94838.50;;;-1.12;100.00
8298;BME280;4187;42.778;23.242;2022-12-13T03:33:53;94826.50;;;-1.29;100.00
8298;BME280;4187;42.778;23.242;2022-12-13T03:36:21;94819.56;;;-1.29;100.00
8298;BME280;4187;42.778;23.242;2022-12-13T03:38:49;94796.72;;;-1.36;100.00
8298;BME280;4187;42.778;23.242;2022-12-13T03:41:20;94795.38;;;-1.43;100.00
8298;BME280;4187;42.778;23.242;2022-12-13T03:43:48;94824.59;;;-1.26;100.00
8298;BME280;4187;42.778;23.242;2022-12-13T03:46:15;94842.00;;;-1.13;100.00
8298;BME280;4187;42.778;23.242;2022-12-13T03:48:42;94848.63;;;-1.24;100.00
8298;BME280;4187;42.778;23.242;2022-12-13T03:51:09;94809.84;;;-1.55;100.00
8298;BME280;4187;42.778;23.242;2022-12-13T03:53:37;94852.50;;;-1.46;100.00
8298;BME280;4187;42.778;23.242;2022-12-13T03:56:05;94853.66;;;-1.52;100.00
8298;BME280;4187;42.778;23.242;2022-12-13T03:58:33;94854.81;;;-1.57;100.00
8298;BME280;4187;42.778;23.242;2022-12-13T04:01:00;94857.41;;;-1.57;100.00
8298;BME280;4187;42.778;23.242;2022-12-13T04:03:27;94855.56;;;-1.55;100.00
8298;BME280;4187;42.778;23.242;2022-12-13T04:05:54;94856.00;;;-1.63;100.00
8298;BME280;4187;42.778;23.242;2022-12-13T04:08:20;94853.47;;;-1.64;100.00
8298;BME280;4187;42.778;23.242;2022-12-13T04:10:49;94857.47;;;-1.59;100.00
8298;BME280;4187;42.778;23.242;2022-12-13T04:13:15;94858.16;;;-1.55;100.00
8298;BME280;4187;42.778;23.242;2022-12-13T04:16:00;94872.75;;;-1.70;100.00
8298;BME280;4187;42.778;23.242;2022-12-13T04:18:27;94870.84;;;-1.66;100.00
8298;BME280;4187;42.778;23.242;2022-12-13T04:20:54;94884.94;;;-1.72;100.00
8298;BME280;4187;42.778;23.242;2022-12-13T04:23:21;94870.66;;;-1.79;100.00
8298;BME280;4187;42.778;23.242;2022-12-13T04:25:50;94889.19;;;-1.71;100.00
8298;BME280;4187;42.778;23.242;2022-12-13T04:28:17;94890.41;;;-1.78;100.00
8298;BME280;4187;42.778;23.242;2022-12-13T04:30:44;94882.91;;;-1.83;100.00
8298;BME280;4187;42.778;23.242;2022-12-13T04:33:10;94894.81;;;-1.96;100.00
8298;BME280;4187;42.778;23.242;2022-12-13T04:35:37;94892.66;;;-1.88;100.00
8298;BME280;4187;42.778;23.242;2022-12-13T04:38:04;94902.31;;;-1.91;100.00
8298;BME280;4187;42.778;23.242;2022-12-13T04:40:31;94903.75;;;-1.86;100.00
8298;BME280;4187;42.778;23.242;2022-12-13T04:42:59;94915.09;;;-1.88;100.00
8298;BME280;4187;42.778;23.242;2022-12-13T04:45:26;94904.31;;;-1.96;100.00
8298;BME280;4187;42.778;23.242;2022-12-13T04:47:53;94917.09;;;-1.93;100.00
8298;BME280;4187;42.778;23.242;2022-12-13T04:50:20;94923.16;;;-1.94;100.00
8298;BME280;4187;42.778;23.242;2022-12-13T04:52:46;94928.69;;;-2.00;100.00
8298;BME280;4187;42.778;23.242;2022-12-13T04:55:13;94934.00;;;-2.03;100.00
8298;BME280;4187;42.778;23.242;2022-12-13T04:57:40;94937.84;;;-1.95;100.00
8298;BME280;4187;42.778;23.242;2022-12-13T05:00:11;94931.25;;;-2.00;100.00
8298;BME280;4187;42.778;23.242;2022-12-13T05:02:39;94934.56;;;-2.14;100.00
8298;BME280;4187;42.778;23.242;2022-12-13T05:05:07;94929.44;;;-2.15;100.00
8298;BME280;4187;42.778;23.242;2022-12-13T05:07:34;94931.34;;;-2.19;100.00
8298;BME280;4187;42.778;23.242;2022-12-13T05:10:01;94935.69;;;-2.19;100.00
8298;BME280;4187;42.778;23.242;2022-12-13T05:12:28;94936.13;;;-2.11;100.00
8298;BME280;4187;42.778;23.242;2022-12-13T05:14:54;94930.53;;;-2.19;100.00
8298;BME280;4187;42.778;23.242;2022-12-13T05:17:23;94936.16;;;-2.28;100.00
8298;BME280;4187;42.778;23.242;2022-12-13T05:19:49;94937.38;;;-2.35;100.00
8298;BME280;4187;42.778;23.242;2022-12-13T05:22:16;94928.84;;;-2.37;100.00
8298;BME280;4187;42.778;23.242;2022-12-13T05:24:43;94935.84;;;-2.22;100.00
8298;BME280;4187;42.778;23.242;2022-12-13T05:27:10;94940.88;;;-2.19;100.00
8298;BME280;4187;42.778;23.242;2022-12-13T05:29:37;94946.84;;;-2.19;100.00
8298;BME280;4187;42.778;23.242;2022-12-13T05:32:04;94949.91;;;-2.28;100.00
8298;BME280;4187;42.778;23.242;2022-12-13T05:34:35;94954.38;;;-2.31;100.00
8298;BME280;4187;42.778;23.242;2022-12-13T05:37:02;94969.00;;;-2.30;100.00
8298;BME280;4187;42.778;23.242;2022-12-13T05:39:28;94962.97;;;-2.31;100.00
8298;BME280;4187;42.778;23.242;2022-12-13T05:41:56;94965.25;;;-2.25;100.00
8298;BME280;4187;42.778;23.242;2022-12-13T05:44:24;94969.75;;;-2.28;100.00
8298;BME280;4187;42.778;23.242;2022-12-13T05:46:51;94957.66;;;-2.28;100.00
8298;BME280;4187;42.778;23.242;2022-12-13T05:49:17;94945.19;;;-2.20;100.00
8298;BME280;4187;42.778;23.242;2022-12-13T05:51:46;94949.97;;;-2.29;100.00
8298;BME280;4187;42.778;23.242;2022-12-13T05:54:13;94953.47;;;-2.30;100.00
8298;BME280;4187;42.778;23.242;2022-12-13T05:56:39;94959.69;;;-2.34;100.00
8298;BME280;4187;42.778;23.242;2022-12-13T05:59:06;94973.78;;;-2.23;100.00
8298;BME280;4187;42.778;23.242;2022-12-13T06:01:33;94970.63;;;-2.29;100.00
8298;BME280;4187;42.778;23.242;2022-12-13T06:04:01;94983.47;;;-2.45;100.00
8298;BME280;4187;42.778;23.242;2022-12-13T06:06:28;94987.00;;;-2.46;100.00
8298;BME280;4187;42.778;23.242;2022-12-13T06:08:57;94991.69;;;-2.37;100.00
8298;BME280;4187;42.778;23.242;2022-12-13T06:11:24;94985.69;;;-2.37;100.00
8298;BME280;4187;42.778;23.242;2022-12-13T06:13:51;94988.13;;;-2.34;100.00
8298;BME280;4187;42.778;23.242;2022-12-13T06:16:18;94990.78;;;-2.36;100.00
8298;BME280;4187;42.778;23.242;2022-12-13T06:18:44;95004.47;;;-2.34;100.00
8298;BME280;4187;42.778;23.242;2022-12-13T06:21:11;95003.25;;;-2.27;100.00
8298;BME280;4187;42.778;23.242;2022-12-13T06:23:38;94910.03;;;-2.74;100.00
8298;BME280;4187;42.778;23.242;2022-12-13T06:26:07;94971.88;;;-2.36;100.00
8298;BME280;4187;42.778;23.242;2022-12-13T06:28:34;94996.78;;;-2.18;100.00
8298;BME280;4187;42.778;23.242;2022-12-13T06:31:02;95005.47;;;-2.19;100.00
8298;BME280;4187;42.778;23.242;2022-12-13T06:33:29;95004.03;;;-2.25;100.00
8298;BME280;4187;42.778;23.242;2022-12-13T06:36:00;95008.34;;;-2.25;100.00
8298;BME280;4187;42.778;23.242;2022-12-13T06:38:27;95010.34;;;-2.30;100.00
8298;BME280;4187;42.778;23.242;2022-12-13T06:40:54;95016.50;;;-2.33;100.00
8298;BME280;4187;42.778;23.242;2022-12-13T06:43:22;95011.53;;;-2.37;100.00
8298;BME280;4187;42.778;23.242;2022-12-13T06:45:49;95017.91;;;-2.45;100.00
8298;BME280;4187;42.778;23.242;2022-12-13T06:48:16;95022.63;;;-2.53;100.00
8298;BME280;4187;42.778;23.242;2022-12-13T06:50:43;95013.63;;;-2.63;100.00
8298;BME280;4187;42.778;23.242;2022-12-13T06:53:09;95003.31;;;-2.63;100.00
8298;BME280;4187;42.778;23.242;2022-12-13T06:55:36;95011.38;;;-2.52;100.00
8298;BME280;4187;42.778;23.242;2022-12-13T06:58:03;95016.38;;;-2.49;100.00
8298;BME280;4187;42.778;23.242;2022-12-13T07:00:31;95023.97;;;-2.46;100.00
8298;BME280;4187;42.778;23.242;2022-12-13T07:02:58;95021.53;;;-2.49;100.00
8298;BME280;4187;42.778;23.242;2022-12-13T07:05:27;95002.94;;;-2.55;100.00
8298;BME280;4187;42.778;23.242;2022-12-13T07:07:54;95015.41;;;-2.29;100.00
8298;BME280;4187;42.778;23.242;2022-12-13T07:10:21;95008.50;;;-2.11;100.00
8298;BME280;4187;42.778;23.242;2022-12-13T07:12:48;95026.28;;;-1.88;100.00
8298;BME280;4187;42.778;23.242;2022-12-13T07:15:15;95029.03;;;-1.91;100.00
8298;BME280;4187;42.778;23.242;2022-12-13T07:17:43;95033.91;;;-1.85;100.00
8298;BME280;4187;42.778;23.242;2022-12-13T07:20:11;95029.72;;;-1.70;100.00
8298;BME280;4187;42.778;23.242;2022-12-13T07:22:39;95032.25;;;-1.53;100.00
8298;BME280;4187;42.778;23.242;2022-12-13T07:25:07;95028.88;;;-1.38;100.00
8298;BME280;4187;42.778;23.242;2022-12-13T07:27:34;95029.91;;;-1.25;100.00
8298;BME280;4187;42.778;23.242;2022-12-13T07:30:01;95031.19;;;-1.01;100.00
8298;BME280;4187;42.778;23.242;2022-12-13T07:32:28;95041.47;;;-0.84;100.00
8298;BME280;4187;42.778;23.242;2022-12-13T07:34:56;95044.91;;;-0.68;100.00
8298;BME280;4187;42.778;23.242;2022-12-13T07:37:23;95042.31;;;-0.52;100.00
8298;BME280;4187;42.778;23.242;2022-12-13T07:39:51;95044.38;;;-0.43;100.00
8298;BME280;4187;42.778;23.242;2022-12-13T07:42:18;95044.38;;;-0.27;100.00
8298;BME280;4187;42.778;23.242;2022-12-13T07:44:44;95042.84;;;-0.16;100.00
8298;BME280;4187;42.778;23.242;2022-12-13T07:47:11;95041.84;;;-0.13;100.00
8298;BME280;4187;42.778;23.242;2022-12-13T07:49:38;95055.19;;;-0.05;100.00
8298;BME280;4187;42.778;23.242;2022-12-13T07:52:10;95046.81;;;0.06;100.00
8298;BME280;4187;42.778;23.242;2022-12-13T07:54:37;95061.72;;;0.32;100.00
8298;BME280;4187;42.778;23.242;2022-12-13T07:57:04;95065.72;;;0.51;100.00
8298;BME280;4187;42.778;23.242;2022-12-13T07:59:31;95064.28;;;0.62;100.00
8298;BME280;4187;42.778;23.242;2022-12-13T08:01:58;95030.78;;;0.43;100.00
8298;BME280;4187;42.778;23.242;2022-12-13T08:04:25;95059.56;;;0.24;100.00
8298;BME280;4187;42.778;23.242;2022-12-13T08:06:52;95059.91;;;-0.12;100.00
8298;BME280;4187;42.778;23.242;2022-12-13T08:09:20;95048.72;;;-0.28;100.00
8298;BME280;4187;42.778;23.242;2022-12-13T08:11:47;95049.84;;;-0.47;100.00
8298;BME280;4187;42.778;23.242;2022-12-13T08:14:16;95037.91;;;-0.81;100.00
8298;BME280;4187;42.778;23.242;2022-12-13T08:16:43;95041.72;;;0.04;100.00
8298;BME280;4187;42.778;23.242;2022-12-13T08:19:10;95057.81;;;-0.21;100.00
8298;BME280;4187;42.778;23.242;2022-12-13T08:21:39;95062.38;;;-0.71;100.00
8298;BME280;4187;42.778;23.242;2022-12-13T08:24:07;95061.00;;;-0.94;100.00
8298;BME280;4187;42.778;23.242;2022-12-13T08:26:35;95026.13;;;-1.35;100.00
8298;BME280;4187;42.778;23.242;2022-12-13T08:29:03;95056.84;;;-1.29;100.00
8298;BME280;4187;42.778;23.242;2022-12-13T08:31:30;95056.13;;;-1.15;100.00
8298;BME280;4187;42.778;23.242;2022-12-13T08:33:57;95040.56;;;-0.98;100.00
8298;BME280;4187;42.778;23.242;2022-12-13T08:36:24;95035.22;;;-0.80;100.00
8298;BME280;4187;42.778;23.242;2022-12-13T08:38:53;95042.72;;;-0.44;100.00
8298;BME280;4187;42.778;23.242;2022-12-13T08:41:21;95042.16;;;-0.04;100.00
8298;BME280;4187;42.778;23.242;2022-12-13T08:43:49;95038.72;;;0.26;100.00
8298;BME280;4187;42.778;23.242;2022-12-13T08:46:16;95039.50;;;0.42;100.00
8298;BME280;4187;42.778;23.242;2022-12-13T08:48:43;95041.91;;;0.73;100.00
8298;BME280;4187;42.778;23.242;2022-12-13T08:51:12;95022.28;;;0.97;100.00
8298;BME280;4187;42.778;23.242;2022-12-13T08:53:40;95040.03;;;1.46;100.00
8298;BME280;4187;42.778;23.242;2022-12-13T08:56:10;95041.06;;;1.97;100.00
8298;BME280;4187;42.778;23.242;2022-12-13T08:58:38;94992.63;;;2.21;100.00
8298;BME280;4187;42.778;23.242;2022-12-13T09:01:06;95025.88;;;2.93;100.00
8298;BME280;4187;42.778;23.242;2022-12-13T09:03:34;95006.59;;;3.68;100.00
8298;BME280;4187;42.778;23.242;2022-12-13T09:06:12;95007.84;;;3.99;100.00
8298;BME280;4187;42.778;23.242;2022-12-13T09:08:39;95015.69;;;4.34;100.00
8298;BME280;4187;42.778;23.242;2022-12-13T09:11:08;95014.25;;;4.75;100.00
8298;BME280;4187;42.778;23.242;2022-12-13T09:13:36;95012.25;;;5.12;100.00
8298;BME280;4187;42.778;23.242;2022-12-13T09:16:04;94982.75;;;5.43;98.49
8298;BME280;4187;42.778;23.242;2022-12-13T09:18:32;94989.97;;;6.16;92.48
8298;BME280;4187;42.778;23.242;2022-12-13T09:20:59;94997.56;;;6.51;91.49
8298;BME280;4187;42.778;23.242;2022-12-13T09:23:26;94986.34;;;6.90;89.21
8298;BME280;4187;42.778;23.242;2022-12-13T09:25:54;94990.38;;;7.24;84.07
8298;BME280;4187;42.778;23.242;2022-12-13T09:28:21;94989.16;;;7.38;80.96
8298;BME280;4187;42.778;23.242;2022-12-13T09:30:49;94986.84;;;7.35;79.02
8298;BME280;4187;42.778;23.242;2022-12-13T09:33:15;94976.88;;;7.39;78.03
8298;BME280;4187;42.778;23.242;2022-12-13T09:35:44;94984.22;;;7.35;76.34
8298;BME280;4187;42.778;23.242;2022-12-13T09:38:11;94981.94;;;7.21;77.56
8298;BME280;4187;42.778;23.242;2022-12-13T09:40:40;94977.97;;;6.96;75.57
8298;BME280;4187;42.778;23.242;2022-12-13T09:43:11;94979.94;;;6.62;76.07
8298;BME280;4187;42.778;23.242;2022-12-13T09:45:43;94979.38;;;6.38;78.20
8298;BME280;4187;42.778;23.242;2022-12-13T09:48:12;94979.00;;;6.63;80.67
8298;BME280;4187;42.778;23.242;2022-12-13T09:50:42;94950.59;;;6.89;79.94
8298;BME280;4187;42.778;23.242;2022-12-13T09:53:13;94974.31;;;7.48;82.12
8298;BME280;4187;42.778;23.242;2022-12-13T09:55:44;94971.06;;;7.84;81.25
8298;BME280;4187;42.778;23.242;2022-12-13T09:58:16;94963.53;;;8.29;90.59
8298;BME280;4187;42.778;23.242;2022-12-13T10:00:46;94974.91;;;9.42;87.76
8298;BME280;4187;42.778;23.242;2022-12-13T10:03:15;94966.09;;;9.60;75.30
8298;BME280;4187;42.778;23.242;2022-12-13T10:05:44;94976.13;;;9.75;73.47
8298;BME280;4187;42.778;23.242;2022-12-13T10:08:15;94970.41;;;9.79;71.42
8298;BME280;4187;42.778;23.242;2022-12-13T10:10:42;94973.59;;;9.83;69.17
8298;BME280;4187;42.778;23.242;2022-12-13T10:13:17;94959.50;;;9.74;68.05
8298;BME280;4187;42.778;23.242;2022-12-13T10:15:49;94953.19;;;9.85;68.47
8298;BME280;4187;42.778;23.242;2022-12-13T10:18:24;94952.06;;;9.87;72.00
8298;BME280;4187;42.778;23.242;2022-12-13T10:20:52;94946.16;;;10.03;71.83
8298;BME280;4187;42.778;23.242;2022-12-13T10:23:21;94928.97;;;9.99;68.23
8298;BME280;4187;42.778;23.242;2022-12-13T10:25:50;94942.50;;;10.13;67.57
8298;BME280;4187;42.778;23.242;2022-12-13T10:28:24;94944.13;;;10.14;68.69
8298;BME280;4187;42.778;23.242;2022-12-13T10:30:52;94950.72;;;10.01;65.83
8298;BME280;4187;42.778;23.242;2022-12-13T10:33:23;94939.16;;;9.84;63.57
8298;BME280;4187;42.778;23.242;2022-12-13T10:36:08;94940.59;;;9.79;67.74
8298;BME280;4187;42.778;23.242;2022-12-13T10:38:41;94936.19;;;9.97;67.32
8298;BME280;4187;42.778;23.242;2022-12-13T10:41:28;94927.88;;;10.19;69.85
8298;BME280;4187;42.778;23.242;2022-12-13T10:44:19;94924.81;;;10.49;64.79
8298;BME280;4187;42.778;23.242;2022-12-13T10:46:49;94920.91;;;10.53;62.14
8298;BME280;4187;42.778;23.242;2022-12-13T10:49:19;94921.88;;;10.52;62.36
8298;BME280;4187;42.778;23.242;2022-12-13T10:51:47;94920.78;;;10.37;64.28
8298;BME280;4187;42.778;23.242;2022-12-13T10:54:25;94912.94;;;10.45;66.79
8298;BME280;4187;42.778;23.242;2022-12-13T10:56:53;94910.28;;;10.45;66.25
8298;BME280;4187;42.778;23.242;2022-12-13T10:59:28;94900.72;;;10.96;86.39
8298;BME280;4187;42.778;23.242;2022-12-13T11:01:56;94904.47;;;11.11;67.72
8298;BME280;4187;42.778;23.242;2022-12-13T11:04:27;94906.53;;;11.33;63.34
8298;BME280;4187;42.778;23.242;2022-12-13T11:06:57;94893.91;;;11.53;61.50
8298;BME280;4187;42.778;23.242;2022-12-13T11:09:27;94898.22;;;11.54;60.92
8298;BME280;4187;42.778;23.242;2022-12-13T11:11:56;94891.91;;;11.47;61.15
8298;BME280;4187;42.778;23.242;2022-12-13T11:14:27;94891.47;;;11.59;61.45
8298;BME280;4187;42.778;23.242;2022-12-13T11:16:57;94878.75;;;11.63;59.40
8298;BME280;4187;42.778;23.242;2022-12-13T11:19:28;94888.38;;;11.72;61.76
8298;BME280;4187;42.778;23.242;2022-12-13T11:21:58;94888.00;;;11.67;60.87
8298;BME280;4187;42.778;23.242;2022-12-13T11:24:30;94889.69;;;11.68;60.49
8298;BME280;4187;42.778;23.242;2022-12-13T11:27:00;94901.06;;;11.68;59.91
8298;BME280;4187;42.778;23.242;2022-12-13T11:32:45;94895.75;;;11.60;68.94
8298;BME280;4187;42.778;23.242;2022-12-13T11:35:17;94892.03;;;11.79;62.83
8298;BME280;4187;42.778;23.242;2022-12-13T11:37:53;94897.03;;;11.98;61.16
8298;BME280;4187;42.778;23.242;2022-12-13T11:40:28;94885.47;;;11.91;68.85
8298;BME280;4187;42.778;23.242;2022-12-13T11:42:59;94887.94;;;11.92;59.75
8298;BME280;4187;42.778;23.242;2022-12-13T11:45:32;94890.25;;;11.95;60.04
8298;BME280;4187;42.778;23.242;2022-12-13T11:48:04;94892.75;;;11.89;58.35
8298;BME280;4187;42.778;23.242;2022-12-13T11:50:38;94888.09;;;11.83;59.30
8298;BME280;4187;42.778;23.242;2022-12-13T11:53:19;94879.19;;;11.84;61.66
8298;BME280;4187;42.778;23.242;2022-12-13T11:55:53;94871.19;;;11.68;61.22
8298;BME280;4187;42.778;23.242;2022-12-13T11:58:25;94864.22;;;11.59;59.75
8298;BME280;4187;42.778;23.242;2022-12-13T12:00:58;94822.28;;;11.22;58.60
8298;BME280;4187;42.778;23.242;2022-12-13T12:03:35;94858.63;;;11.28;60.96
8298;BME280;4187;42.778;23.242;2022-12-13T12:06:07;94862.97;;;11.37;63.37
8298;BME280;4187;42.778;23.242;2022-12-13T12:08:41;94862.03;;;11.46;61.90
8298;BME280;4187;42.778;23.242;2022-12-13T12:11:18;94873.25;;;11.48;61.22
8298;BME280;4187;42.778;23.242;2022-12-13T12:13:49;94869.59;;;11.41;62.35
8298;BME280;4187;42.778;23.242;2022-12-13T12:16:27;94867.75;;;11.33;64.22
8298;BME280;4187;42.778;23.242;2022-12-13T12:18:56;94844.56;;;11.19;63.91
8298;BME280;4187;42.778;23.242;2022-12-13T12:21:32;94863.94;;;11.36;64.22
8298;BME280;4187;42.778;23.242;2022-12-13T12:24:09;94858.03;;;11.42;63.78
8298;BME280;4187;42.778;23.242;2022-12-13T12:26:48;94861.34;;;11.44;62.46
8298;BME280;4187;42.778;23.242;2022-12-13T12:29:44;94851.56;;;11.36;64.05
8298;BME280;4187;42.778;23.242;2022-12-13T12:32:22;94859.44;;;11.20;64.34
8298;BME280;4187;42.778;23.242;2022-12-13T12:34:55;94866.88;;;11.25;65.62
8298;BME280;4187;42.778;23.242;2022-12-13T12:37:35;94862.63;;;11.32;66.29
8298;BME280;4187;42.778;23.242;2022-12-13T12:40:27;94869.91;;;11.30;63.23
8298;BME280;4187;42.778;23.242;2022-12-13T12:43:06;94871.59;;;11.05;64.78
8298;BME280;4187;42.778;23.242;2022-12-13T12:45:44;94872.19;;;10.91;64.72
8298;BME280;4187;42.778;23.242;2022-12-13T12:48:30;94876.00;;;10.97;64.73
8298;BME280;4187;42.778;23.242;2022-12-13T12:51:05;94863.78;;;10.96;64.40
8298;BME280;4187;42.778;23.242;2022-12-13T12:53:39;94879.63;;;10.96;64.21
8298;BME280;4187;42.778;23.242;2022-12-13T12:56:19;94879.94;;;10.67;64.84
8298;BME280;4187;42.778;23.242;2022-12-13T12:58:56;94887.63;;;10.60;68.44
8298;BME280;4187;42.778;23.242;2022-12-13T13:01:38;94877.56;;;10.56;64.52
8298;BME280;4187;42.778;23.242;2022-12-13T13:04:11;94869.66;;;10.38;65.28
8298;BME280;4187;42.778;23.242;2022-12-13T13:06:43;94879.63;;;10.09;67.00
8298;BME280;4187;42.778;23.242;2022-12-13T13:09:13;94883.09;;;10.09;67.74
8298;BME280;4187;42.778;23.242;2022-12-13T13:11:44;94904.47;;;10.06;66.88
8298;BME280;4187;42.778;23.242;2022-12-13T13:14:28;94904.69;;;9.78;67.33
8298;BME280;4187;42.778;23.242;2022-12-13T13:16:56;94907.47;;;9.58;68.90
8298;BME280;4187;42.778;23.242;2022-12-13T13:19:45;94913.00;;;9.38;69.03
8298;BME280;4187;42.778;23.242;2022-12-13T13:22:27;94927.09;;;9.10;70.73
8298;BME280;4187;42.778;23.242;2022-12-13T13:25:24;94933.38;;;8.99;72.54
8298;BME280;4187;42.778;23.242;2022-12-13T13:28:00;94939.41;;;8.63;71.34
8298;BME280;4187;42.778;23.242;2022-12-13T13:30:30;94937.09;;;8.40;71.79
8298;BME280;4187;42.778;23.242;2022-12-13T13:32:57;94860.72;;;7.84;74.46